sensor_id;sensor_type;location;lat;lon;timestamp;pressure;altitude;pressure_sealevel;temperature;humidity
42761;BME280;31672;47.638;19.026;2023-02-28T00:03:48;101220.63;;;-2.19;71.31
42761;BME280;31672;47.638;19.026;2023-02-28T00:08:51;101229.03;;;-2.12;71.35
42761;BME280;31672;47.638;19.026;2023-02-28T00:13:55;101226.13;;;-2.04;70.94
42761;BME280;31672;47.638;19.026;2023-02-28T00:18:58;101225.94;;;-2.00;71.15
42761;BME280;31672;47.638;19.026;2023-02-28T00:24:01;101232.72;;;-1.96;70.60
42761;BME280;31672;47.638;19.026;2023-02-28T00:29:04;101241.25;;;-1.92;70.29
42761;BME280;31672;47.638;19.026;2023-02-28T00:34:07;101241.22;;;-1.91;70.39
42761;BME280;31672;47.638;19.026;2023-02-28T00:39:11;101245.50;;;-1.90;70.14
42761;BME280;31672;47.638;19.026;2023-02-28T00:44:14;101259.63;;;-1.95;69.86
42761;BME280;31672;47.638;19.026;2023-02-28T00:49:17;101256.44;;;-2.02;69.98
42761;BME280;31672;47.638;19.026;2023-02-28T00:54:22;101261.88;;;-2.08;69.81
42761;BME280;31672;47.638;19.026;2023-02-28T00:59:25;101268.00;;;-2.09;70.27
42761;BME280;31672;47.638;19.026;2023-02-28T01:04:29;101256.59;;;-2.06;70.55
42761;BME280;31672;47.638;19.026;2023-02-28T01:09:33;101264.16;;;-2.00;70.37
42761;BME280;31672;47.638;19.026;2023-02-28T01:14:36;101266.47;;;-1.93;70.67
42761;BME280;31672;47.638;19.026;2023-02-28T01:19:39;101263.56;;;-1.85;70.78
42761;BME280;31672;47.638;19.026;2023-02-28T01:24:42;101259.88;;;-1.79;70.32
42761;BME280;31672;47.638;19.026;2023-02-28T01:29:45;101262.22;;;-1.73;70.13
42761;BME280;31672;47.638;19.026;2023-02-28T01:34:48;101258.44;;;-1.66;69.80
42761;BME280;31672;47.638;19.026;2023-02-28T01:39:51;101253.81;;;-1.59;69.74
42761;BME280;31672;47.638;19.026;2023-02-28T01:45:05;101262.28;;;-1.54;69.68
42761;BME280;31672;47.638;19.026;2023-02-28T01:50:22;101262.09;;;-1.50;69.57
42761;BME280;31672;47.638;19.026;2023-02-28T01:55:27;101250.50;;;-1.43;69.54
42761;BME280;31672;47.638;19.026;2023-02-28T02:00:32;101258.25;;;-1.41;70.26
42761;BME280;31672;47.638;19.026;2023-02-28T02:05:39;101261.75;;;-1.42;69.97
42761;BME280;31672;47.638;19.026;2023-02-28T02:10:57;101255.75;;;-1.44;70.36
42761;BME280;31672;47.638;19.026;2023-02-28T02:16:34;101249.66;;;-1.43;70.84
42761;BME280;31672;47.638;19.026;2023-02-28T02:22:00;101243.44;;;-1.41;70.42
42761;BME280;31672;47.638;19.026;2023-02-28T02:38:31;101227.44;;;-1.13;69.10
42761;BME280;31672;47.638;19.026;2023-02-28T02:43:58;101240.13;;;-1.05;68.70
42761;BME280;31672;47.638;19.026;2023-02-28T02:49:09;101245.09;;;-0.99;68.11
42761;BME280;31672;47.638;19.026;2023-02-28T02:54:38;101248.19;;;-0.91;67.31
42761;BME280;31672;47.638;19.026;2023-02-28T02:59:44;101249.63;;;-0.84;66.56
42761;BME280;31672;47.638;19.026;2023-02-28T03:05:02;101249.34;;;-0.77;66.29
42761;BME280;31672;47.638;19.026;2023-02-28T03:10:49;101249.13;;;-0.73;65.96
42761;BME280;31672;47.638;19.026;2023-02-28T03:26:54;101257.38;;;-0.63;65.12
42761;BME280;31672;47.638;19.026;2023-02-28T03:37:29;101256.34;;;-0.59;64.58
42761;BME280;31672;47.638;19.026;2023-02-28T03:42:36;101252.63;;;-0.55;64.51
42761;BME280;31672;47.638;19.026;2023-02-28T03:47:46;101253.50;;;-0.55;64.03
42761;BME280;31672;47.638;19.026;2023-02-28T03:53:01;101245.53;;;-0.51;63.83
42761;BME280;31672;47.638;19.026;2023-02-28T04:03:44;101255.75;;;-0.47;64.29
42761;BME280;31672;47.638;19.026;2023-02-28T04:08:47;101261.00;;;-0.47;64.42
42761;BME280;31672;47.638;19.026;2023-02-28T04:13:51;101248.84;;;-0.48;64.25
42761;BME280;31672;47.638;19.026;2023-02-28T04:18:54;101250.53;;;-0.47;64.19
42761;BME280;31672;47.638;19.026;2023-02-28T04:24:06;101248.78;;;-0.46;63.97
42761;BME280;31672;47.638;19.026;2023-02-28T04:29:11;101243.56;;;-0.46;63.90
42761;BME280;31672;47.638;19.026;2023-02-28T04:34:15;101246.94;;;-0.44;63.89
42761;BME280;31672;47.638;19.026;2023-02-28T04:39:18;101239.00;;;-0.43;63.73
42761;BME280;31672;47.638;19.026;2023-02-28T04:44:22;101239.66;;;-0.38;63.75
42761;BME280;31672;47.638;19.026;2023-02-28T04:49:25;101231.72;;;-0.36;63.74
42761;BME280;31672;47.638;19.026;2023-02-28T04:54:28;101238.44;;;-0.31;63.40
42761;BME280;31672;47.638;19.026;2023-02-28T04:59:32;101240.06;;;-0.28;63.45
42761;BME280;31672;47.638;19.026;2023-02-28T05:04:36;101240.91;;;-0.28;63.48
42761;BME280;31672;47.638;19.026;2023-02-28T05:09:39;101238.22;;;-0.26;62.79
42761;BME280;31672;47.638;19.026;2023-02-28T05:14:42;101243.34;;;-0.24;62.81
42761;BME280;31672;47.638;19.026;2023-02-28T05:19:46;101247.81;;;-0.27;62.61
42761;BME280;31672;47.638;19.026;2023-02-28T05:24:49;101250.44;;;-0.27;62.76
42761;BME280;31672;47.638;19.026;2023-02-28T05:29:52;101245.22;;;-0.27;62.61
42761;BME280;31672;47.638;19.026;2023-02-28T05:34:55;101256.38;;;-0.23;62.57
42761;BME280;31672;47.638;19.026;2023-02-28T05:39:58;101258.91;;;-0.21;62.83
42761;BME280;31672;47.638;19.026;2023-02-28T05:45:02;101258.91;;;-0.21;62.33
42761;BME280;31672;47.638;19.026;2023-02-28T05:50:06;101268.34;;;-0.19;62.11
42761;BME280;31672;47.638;19.026;2023-02-28T05:55:09;101271.50;;;-0.12;62.05
42761;BME280;31672;47.638;19.026;2023-02-28T06:00:13;101274.00;;;-0.09;61.07
42761;BME280;31672;47.638;19.026;2023-02-28T06:05:18;101280.78;;;-0.05;60.68
42761;BME280;31672;47.638;19.026;2023-02-28T06:10:21;101283.94;;;0.02;60.24
42761;BME280;31672;47.638;19.026;2023-02-28T06:15:24;101291.31;;;0.11;59.72
42761;BME280;31672;47.638;19.026;2023-02-28T06:20:28;101282.97;;;0.21;59.81
42761;BME280;31672;47.638;19.026;2023-02-28T06:25:32;101291.25;;;0.30;59.62
42761;BME280;31672;47.638;19.026;2023-02-28T06:30:37;101291.66;;;0.39;59.26
42761;BME280;31672;47.638;19.026;2023-02-28T06:35:42;101294.50;;;0.52;59.07
42761;BME280;31672;47.638;19.026;2023-02-28T06:40:54;101293.06;;;0.64;58.72
42761;BME280;31672;47.638;19.026;2023-02-28T06:46:01;101289.91;;;0.74;58.15
42761;BME280;31672;47.638;19.026;2023-02-28T06:51:11;101285.47;;;0.92;58.22
42761;BME280;31672;47.638;19.026;2023-02-28T06:56:19;101290.47;;;1.14;58.38
42761;BME280;31672;47.638;19.026;2023-02-28T07:01:23;101291.91;;;1.36;56.86
42761;BME280;31672;47.638;19.026;2023-02-28T07:06:29;101294.47;;;1.53;56.31
42761;BME280;31672;47.638;19.026;2023-02-28T07:11:32;101296.50;;;1.79;55.59
42761;BME280;31672;47.638;19.026;2023-02-28T07:16:36;101306.84;;;1.98;54.56
42761;BME280;31672;47.638;19.026;2023-02-28T07:21:39;101302.16;;;2.19;54.30
42761;BME280;31672;47.638;19.026;2023-02-28T07:26:42;101306.44;;;2.36;53.44
42761;BME280;31672;47.638;19.026;2023-02-28T07:31:45;101302.19;;;2.63;53.08
42761;BME280;31672;47.638;19.026;2023-02-28T07:36:52;101311.44;;;2.85;51.54
42761;BME280;31672;47.638;19.026;2023-02-28T07:41:56;101312.00;;;3.04;50.76
42761;BME280;31672;47.638;19.026;2023-02-28T07:46:59;101307.44;;;3.22;50.64
42761;BME280;31672;47.638;19.026;2023-02-28T07:52:06;101311.56;;;3.26;50.38
42761;BME280;31672;47.638;19.026;2023-02-28T07:57:09;101309.13;;;3.37;50.06
42761;BME280;31672;47.638;19.026;2023-02-28T08:02:15;101309.69;;;3.42;49.35
42761;BME280;31672;47.638;19.026;2023-02-28T08:07:18;101316.25;;;3.49;49.17
42761;BME280;31672;47.638;19.026;2023-02-28T08:12:21;101308.75;;;3.99;49.43
42761;BME280;31672;47.638;19.026;2023-02-28T08:17:24;101303.44;;;4.40;47.01
42761;BME280;31672;47.638;19.026;2023-02-28T08:22:28;101310.91;;;4.46;46.35
42761;BME280;31672;47.638;19.026;2023-02-28T08:27:31;101313.56;;;4.59;46.38
42761;BME280;31672;47.638;19.026;2023-02-28T08:32:34;101305.50;;;4.88;46.37
42761;BME280;31672;47.638;19.026;2023-02-28T08:37:37;101312.78;;;4.97;43.61
42761;BME280;31672;47.638;19.026;2023-02-28T08:42:40;101302.78;;;5.40;45.82
42761;BME280;31672;47.638;19.026;2023-02-28T08:47:43;101305.66;;;5.61;42.44
42761;BME280;31672;47.638;19.026;2023-02-28T08:52:46;101306.06;;;5.68;44.02
42761;BME280;31672;47.638;19.026;2023-02-28T08:57:49;101306.66;;;5.97;43.14
42761;BME280;31672;47.638;19.026;2023-02-28T09:02:52;101295.78;;;6.60;42.91
42761;BME280;31672;47.638;19.026;2023-02-28T09:07:57;101303.47;;;7.21;41.00
42761;BME280;31672;47.638;19.026;2023-02-28T09:13:00;101293.53;;;7.90;40.33
42761;BME280;31672;47.638;19.026;2023-02-28T09:18:03;101284.09;;;8.94;39.80
42761;BME280;31672;47.638;19.026;2023-02-28T09:23:08;101284.19;;;9.13;38.43
42761;BME280;31672;47.638;19.026;2023-02-28T09:28:11;101286.09;;;9.01;37.83
42761;BME280;31672;47.638;19.026;2023-02-28T09:33:15;101290.44;;;8.61;37.31
42761;BME280;31672;47.638;19.026;2023-02-28T09:38:18;101290.16;;;7.99;37.36
42761;BME280;31672;47.638;19.026;2023-02-28T09:43:26;101299.13;;;7.65;38.46
42761;BME280;31672;47.638;19.026;2023-02-28T09:48:37;101294.09;;;7.62;38.85
42761;BME280;31672;47.638;19.026;2023-02-28T09:53:43;101305.75;;;7.48;38.43
42761;BME280;31672;47.638;19.026;2023-02-28T10:04:36;101297.25;;;6.76;38.14
42761;BME280;31672;47.638;19.026;2023-02-28T10:09:46;101304.72;;;6.82;39.30
42761;BME280;31672;47.638;19.026;2023-02-28T10:14:53;101292.31;;;6.71;39.53
42761;BME280;31672;47.638;19.026;2023-02-28T10:20:15;101281.94;;;7.03;38.93
42761;BME280;31672;47.638;19.026;2023-02-28T10:25:29;101280.50;;;6.99;38.01
42761;BME280;31672;47.638;19.026;2023-02-28T10:30:32;101280.63;;;6.97;38.58
42761;BME280;31672;47.638;19.026;2023-02-28T10:35:35;101274.44;;;6.75;38.81
42761;BME280;31672;47.638;19.026;2023-02-28T10:40:38;101271.66;;;6.65;39.40
42761;BME280;31672;47.638;19.026;2023-02-28T10:46:02;101268.19;;;6.76;39.46
42761;BME280;31672;47.638;19.026;2023-02-28T10:51:13;101271.69;;;6.87;39.75
42761;BME280;31672;47.638;19.026;2023-02-28T10:56:20;101257.91;;;7.06;39.68
42761;BME280;31672;47.638;19.026;2023-02-28T11:01:45;101246.84;;;7.57;40.60
42761;BME280;31672;47.638;19.026;2023-02-28T11:07:21;101241.78;;;8.41;38.83
42761;BME280;31672;47.638;19.026;2023-02-28T11:12:38;101233.31;;;8.98;38.67
42761;BME280;31672;47.638;19.026;2023-02-28T11:18:21;101228.53;;;9.73;38.05
42761;BME280;31672;47.638;19.026;2023-02-28T11:23:28;101229.13;;;10.05;37.43
42761;BME280;31672;47.638;19.026;2023-02-28T11:28:35;101233.25;;;9.50;37.50
42761;BME280;31672;47.638;19.026;2023-02-28T11:33:48;101231.63;;;9.28;38.45
42761;BME280;31672;47.638;19.026;2023-02-28T11:38:56;101234.22;;;9.49;38.92
42761;BME280;31672;47.638;19.026;2023-02-28T12:17:06;101187.63;;;10.04;36.57
42761;BME280;31672;47.638;19.026;2023-02-28T12:28:24;101184.16;;;8.84;37.37
42761;BME280;31672;47.638;19.026;2023-02-28T12:33:38;101178.47;;;8.26;38.92
42761;BME280;31672;47.638;19.026;2023-02-28T12:39:26;101170.59;;;8.15;39.59
42761;BME280;31672;47.638;19.026;2023-02-28T12:44:44;101175.66;;;8.18;40.11
42761;BME280;31672;47.638;19.026;2023-02-28T12:50:08;101175.28;;;8.44;39.96
42761;BME280;31672;47.638;19.026;2023-02-28T13:12:18;101158.25;;;8.25;40.07
42761;BME280;31672;47.638;19.026;2023-02-28T13:17:24;101155.94;;;8.32;39.98
42761;BME280;31672;47.638;19.026;2023-02-28T13:22:44;101154.28;;;8.10;40.21
42761;BME280;31672;47.638;19.026;2023-02-28T13:27:54;101150.84;;;7.98;40.27
42761;BME280;31672;47.638;19.026;2023-02-28T13:33:31;101155.09;;;7.90;41.09
42761;BME280;31672;47.638;19.026;2023-02-28T13:38:48;101149.88;;;7.67;40.86
42761;BME280;31672;47.638;19.026;2023-02-28T14:06:20;101130.66;;;7.22;42.96
42761;BME280;31672;47.638;19.026;2023-02-28T14:11:38;101129.13;;;7.08;43.07
42761;BME280;31672;47.638;19.026;2023-02-28T14:16:45;101116.84;;;7.18;44.07
42761;BME280;31672;47.638;19.026;2023-02-28T14:33:23;101116.78;;;6.97;43.85
42761;BME280;31672;47.638;19.026;2023-02-28T14:38:40;101115.81;;;6.76;44.46
42761;BME280;31672;47.638;19.026;2023-02-28T14:43:56;101115.94;;;6.63;44.78
42761;BME280;31672;47.638;19.026;2023-02-28T14:48:59;101120.03;;;6.56;45.21
42761;BME280;31672;47.638;19.026;2023-02-28T14:54:04;101128.66;;;6.36;45.66
42761;BME280;31672;47.638;19.026;2023-02-28T14:59:30;101125.75;;;6.28;46.18
42761;BME280;31672;47.638;19.026;2023-02-28T15:04:33;101131.78;;;6.30;46.15
42761;BME280;31672;47.638;19.026;2023-02-28T15:09:37;101111.84;;;6.26;46.47
42761;BME280;31672;47.638;19.026;2023-02-28T15:14:43;101121.19;;;6.19;46.63
42761;BME280;31672;47.638;19.026;2023-02-28T15:19:51;101125.97;;;6.13;47.19
42761;BME280;31672;47.638;19.026;2023-02-28T15:24:56;101130.03;;;6.06;46.57
42761;BME280;31672;47.638;19.026;2023-02-28T15:30:04;101122.59;;;6.00;47.14
42761;BME280;31672;47.638;19.026;2023-02-28T15:35:30;101124.47;;;5.98;47.32
42761;BME280;31672;47.638;19.026;2023-02-28T15:40:41;101116.06;;;5.93;47.38
42761;BME280;31672;47.638;19.026;2023-02-28T15:46:04;101108.06;;;5.95;47.88
42761;BME280;31672;47.638;19.026;2023-02-28T15:56:33;101104.53;;;5.83;47.75
42761;BME280;31672;47.638;19.026;2023-02-28T16:01:38;101111.09;;;5.77;48.25
42761;BME280;31672;47.638;19.026;2023-02-28T16:06:55;101111.38;;;5.61;48.45
42761;BME280;31672;47.638;19.026;2023-02-28T16:12:03;101119.69;;;5.44;48.85
42761;BME280;31672;47.638;19.026;2023-02-28T16:17:19;101122.38;;;5.31;49.37
42761;BME280;31672;47.638;19.026;2023-02-28T16:22:24;101116.94;;;5.22;49.89
42761;BME280;31672;47.638;19.026;2023-02-28T16:27:33;101125.50;;;5.13;50.25
42761;BME280;31672;47.638;19.026;2023-02-28T16:32:37;101129.13;;;4.99;51.49
42761;BME280;31672;47.638;19.026;2023-02-28T16:37:41;101137.06;;;4.86;52.18
42761;BME280;31672;47.638;19.026;2023-02-28T16:42:45;101134.34;;;4.75;52.68
42761;BME280;31672;47.638;19.026;2023-02-28T16:47:50;101142.88;;;4.66;53.35
42761;BME280;31672;47.638;19.026;2023-02-28T16:52:54;101149.50;;;4.59;53.46
42761;BME280;31672;47.638;19.026;2023-02-28T16:58:00;101150.91;;;4.51;53.83
42761;BME280;31672;47.638;19.026;2023-02-28T17:03:03;101153.00;;;4.46;53.96
42761;BME280;31672;47.638;19.026;2023-02-28T17:08:09;101156.78;;;4.42;54.33
42761;BME280;31672;47.638;19.026;2023-02-28T17:13:13;101159.72;;;4.38;54.60
42761;BME280;31672;47.638;19.026;2023-02-28T17:18:19;101170.66;;;4.32;54.96
42761;BME280;31672;47.638;19.026;2023-02-28T17:23:24;101166.69;;;4.26;54.91
42761;BME280;31672;47.638;19.026;2023-02-28T17:28:27;101172.03;;;4.24;55.12
42761;BME280;31672;47.638;19.026;2023-02-28T17:33:30;101175.59;;;4.23;55.27
42761;BME280;31672;47.638;19.026;2023-02-28T17:38:33;101168.78;;;4.21;55.39
42761;BME280;31672;47.638;19.026;2023-02-28T17:43:36;101175.81;;;4.20;55.38
42761;BME280;31672;47.638;19.026;2023-02-28T17:48:39;101170.63;;;4.19;55.73
42761;BME280;31672;47.638;19.026;2023-02-28T17:53:43;101168.97;;;4.18;55.72
42761;BME280;31672;47.638;19.026;2023-02-28T17:58:46;101174.22;;;4.18;56.13
42761;BME280;31672;47.638;19.026;2023-02-28T18:03:50;101176.97;;;4.16;56.48
42761;BME280;31672;47.638;19.026;2023-02-28T18:08:54;101172.53;;;4.17;56.60
42761;BME280;31672;47.638;19.026;2023-02-28T18:13:57;101188.22;;;4.18;56.57
42761;BME280;31672;47.638;19.026;2023-02-28T18:19:00;101195.28;;;4.18;57.19
42761;BME280;31672;47.638;19.026;2023-02-28T18:24:06;101193.59;;;4.17;57.44
42761;BME280;31672;47.638;19.026;2023-02-28T18:29:21;101188.44;;;4.15;57.91
42761;BME280;31672;47.638;19.026;2023-02-28T18:34:25;101193.78;;;4.14;58.11
42761;BME280;31672;47.638;19.026;2023-02-28T18:39:29;101197.34;;;4.13;58.55
42761;BME280;31672;47.638;19.026;2023-02-28T18:44:35;101196.41;;;4.14;58.61
42761;BME280;31672;47.638;19.026;2023-02-28T18:49:39;101200.00;;;4.13;58.82
42761;BME280;31672;47.638;19.026;2023-02-28T18:54:45;101200.00;;;4.13;59.04
42761;BME280;31672;47.638;19.026;2023-02-28T18:59:48;101194.84;;;4.11;59.21
42761;BME280;31672;47.638;19.026;2023-02-28T19:04:51;101194.09;;;4.09;59.21
42761;BME280;31672;47.638;19.026;2023-02-28T19:09:53;101197.56;;;4.10;59.35
42761;BME280;31672;47.638;19.026;2023-02-28T19:14:57;101194.19;;;4.08;59.21
42761;BME280;31672;47.638;19.026;2023-02-28T19:20:00;101192.50;;;4.07;59.44
42761;BME280;31672;47.638;19.026;2023-02-28T19:25:04;101189.88;;;4.07;59.39
42761;BME280;31672;47.638;19.026;2023-02-28T19:30:09;101194.28;;;4.06;59.74
42761;BME280;31672;47.638;19.026;2023-02-28T19:35:12;101195.34;;;4.03;59.78
42761;BME280;31672;47.638;19.026;2023-02-28T19:40:16;101192.91;;;4.00;59.88
42761;BME280;31672;47.638;19.026;2023-02-28T19:45:19;101198.16;;;4.00;59.95
42761;BME280;31672;47.638;19.026;2023-02-28T19:50:22;101197.22;;;4.01;60.12
42761;BME280;31672;47.638;19.026;2023-02-28T19:55:27;101192.91;;;4.00;60.21
42761;BME280;31672;47.638;19.026;2023-02-28T20:00:30;101198.28;;;3.99;60.40
42761;BME280;31672;47.638;19.026;2023-02-28T20:05:33;101198.41;;;3.97;60.29
42761;BME280;31672;47.638;19.026;2023-02-28T20:10:36;101191.44;;;3.96;60.65
42761;BME280;31672;47.638;19.026;2023-02-28T20:15:39;101189.84;;;3.94;60.31
42761;BME280;31672;47.638;19.026;2023-02-28T20:20:42;101193.25;;;3.96;60.65
42761;BME280;31672;47.638;19.026;2023-02-28T20:25:45;101202.06;;;3.95;60.53
42761;BME280;31672;47.638;19.026;2023-02-28T20:30:48;101196.91;;;3.93;60.44
42761;BME280;31672;47.638;19.026;2023-02-28T20:36:01;101208.16;;;3.95;60.54
42761;BME280;31672;47.638;19.026;2023-02-28T20:41:07;101199.41;;;3.95;60.59
42761;BME280;31672;47.638;19.026;2023-02-28T20:46:10;101197.84;;;3.92;60.74
42761;BME280;31672;47.638;19.026;2023-02-28T20:51:13;101203.22;;;3.91;60.72
42761;BME280;31672;47.638;19.026;2023-02-28T20:56:19;101194.56;;;3.89;61.12
42761;BME280;31672;47.638;19.026;2023-02-28T21:01:28;101197.31;;;3.87;61.17
42761;BME280;31672;47.638;19.026;2023-02-28T21:06:40;101187.63;;;3.88;61.18
42761;BME280;31672;47.638;19.026;2023-02-28T21:11:45;101181.53;;;3.87;61.07
42761;BME280;31672;47.638;19.026;2023-02-28T21:16:48;101175.31;;;3.88;60.93
42761;BME280;31672;47.638;19.026;2023-02-28T21:21:53;101183.50;;;3.84;60.92
42761;BME280;31672;47.638;19.026;2023-02-28T21:26:56;101189.81;;;3.81;61.24
42761;BME280;31672;47.638;19.026;2023-02-28T21:32:01;101185.69;;;3.77;61.75
42761;BME280;31672;47.638;19.026;2023-02-28T21:37:04;101185.91;;;3.74;61.79
42761;BME280;31672;47.638;19.026;2023-02-28T21:42:09;101177.47;;;3.69;62.71
42761;BME280;31672;47.638;19.026;2023-02-28T21:47:13;101179.38;;;3.67;63.13
42761;BME280;31672;47.638;19.026;2023-02-28T21:52:15;101170.81;;;3.63;63.20
42761;BME280;31672;47.638;19.026;2023-02-28T21:57:23;101171.88;;;3.61;63.38
42761;BME280;31672;47.638;19.026;2023-02-28T22:02:26;101180.69;;;3.60;63.35
42761;BME280;31672;47.638;19.026;2023-02-28T22:07:31;101178.91;;;3.60;63.43
42761;BME280;31672;47.638;19.026;2023-02-28T22:12:34;101179.66;;;3.62;63.13
42761;BME280;31672;47.638;19.026;2023-02-28T22:17:37;101180.50;;;3.63;63.02
42761;BME280;31672;47.638;19.026;2023-02-28T22:22:41;101186.69;;;3.62;63.45
42761;BME280;31672;47.638;19.026;2023-02-28T22:27:44;101199.72;;;3.63;63.25
42761;BME280;31672;47.638;19.026;2023-02-28T22:32:47;101195.31;;;3.64;63.36
42761;BME280;31672;47.638;19.026;2023-02-28T22:37:50;101192.91;;;3.61;63.32
42761;BME280;31672;47.638;19.026;2023-02-28T22:42:53;101194.97;;;3.56;63.77
42761;BME280;31672;47.638;19.026;2023-02-28T22:47:56;101201.25;;;3.53;64.02
42761;BME280;31672;47.638;19.026;2023-02-28T22:52:59;101188.22;;;3.52;64.11
42761;BME280;31672;47.638;19.026;2023-02-28T22:58:03;101192.53;;;3.53;63.89
42761;BME280;31672;47.638;19.026;2023-02-28T23:03:05;101190.00;;;3.51;63.78
42761;BME280;31672;47.638;19.026;2023-02-28T23:08:09;101196.00;;;3.53;63.82
42761;BME280;31672;47.638;19.026;2023-02-28T23:13:12;101189.06;;;3.52;63.98
42761;BME280;31672;47.638;19.026;2023-02-28T23:18:15;101188.97;;;3.54;64.24
42761;BME280;31672;47.638;19.026;2023-02-28T23:23:18;101189.72;;;3.56;64.04
42761;BME280;31672;47.638;19.026;2023-02-28T23:28:22;101188.66;;;3.58;64.29
42761;BME280;31672;47.638;19.026;2023-02-28T23:33:25;101186.81;;;3.60;64.30
42761;BME280;31672;47.638;19.026;2023-02-28T23:38:28;101169.25;;;3.61;64.69
42761;BME280;31672;47.638;19.026;2023-02-28T23:43:31;101172.72;;;3.61;64.57
42761;BME280;31672;47.638;19.026;2023-02-28T23:48:35;101176.19;;;3.62;64.84
42761;BME280;31672;47.638;19.026;2023-02-28T23:53:41;101178.06;;;3.60;65.42
42761;BME280;31672;47.638;19.026;2023-02-28T23:58:45;101174.78;;;3.56;65.69
